createdAt,value
2022-08-29T00:01:13.115Z,70853.38
2022-08-29T00:03:43.099Z,70866.69
2022-08-29T00:06:10.958Z,70825.19
2022-08-29T00:08:38.122Z,70876.53
2022-08-29T00:11:06.806Z,70868.59
2022-08-29T00:13:35.629Z,70843.47
2022-08-29T00:16:03.446Z,70926.00
2022-08-29T00:18:30.990Z,70832.97
2022-08-29T00:20:58.274Z,70716.63
2022-08-29T00:23:25.953Z,70846.53
2022-08-29T00:25:53.358Z,70827.00
2022-08-29T00:28:21.012Z,70828.81
2022-08-29T00:30:50.564Z,70806.38
2022-08-29T00:33:18.871Z,70791.59
2022-08-29T00:35:46.998Z,70822.41
2022-08-29T00:38:18.266Z,70769.44
2022-08-29T00:40:53.129Z,70790.50
2022-08-29T00:43:26.172Z,70836.19
2022-08-29T00:46:38.796Z,70800.03
2022-08-29T00:49:22.977Z,70792.94
2022-08-29T00:51:52.082Z,70791.75
2022-08-29T00:54:20.159Z,70812.19
2022-08-29T00:56:48.014Z,70748.59
2022-08-29T00:59:31.771Z,70769.00
2022-08-29T01:01:59.349Z,70787.03
2022-08-29T01:04:27.137Z,70793.84
2022-08-29T01:06:54.874Z,70760.53
2022-08-29T01:09:24.393Z,70756.56
2022-08-29T01:12:11.683Z,70731.53
2022-08-29T01:14:41.176Z,70754.59
2022-08-29T01:17:10.629Z,70755.19
2022-08-29T01:20:18.937Z,70768.53
2022-08-29T01:23:27.525Z,70764.13
2022-08-29T01:25:57.673Z,70718.63
2022-08-29T01:28:37.940Z,70718.94
2022-08-29T01:31:11.434Z,70724.31
2022-08-29T01:33:49.407Z,70721.66
2022-08-29T01:36:25.188Z,70707.47
2022-08-29T01:38:52.785Z,70690.88
2022-08-29T01:41:22.722Z,70709.19
2022-08-29T01:43:53.081Z,70690.88
2022-08-29T01:46:24.677Z,70669.56
2022-08-29T01:48:52.225Z,70699.19
2022-08-29T01:51:20.218Z,70687.91
2022-08-29T01:53:47.908Z,70689.66
2022-08-29T01:56:24.124Z,70763.88
2022-08-29T01:58:54.143Z,70707.72
2022-08-29T02:01:27.804Z,70722.19
2022-08-29T02:03:58.709Z,70698.53
2022-08-29T02:06:28.452Z,70724.56
2022-08-29T02:08:55.758Z,70731.97
2022-08-29T02:11:23.673Z,70737.63
2022-08-29T02:13:57.396Z,70727.56
2022-08-29T02:16:27.319Z,70732.88
2022-08-29T02:18:55.820Z,70748.84
2022-08-29T02:21:27.365Z,70693.59
2022-08-29T02:23:57.194Z,70688.88
2022-08-29T02:26:24.893Z,70674.41
2022-08-29T02:28:53.504Z,70709.03
2022-08-29T02:31:22.777Z,70699.88
2022-08-29T02:33:51.934Z,70813.69
2022-08-29T02:36:21.374Z,70685.75
2022-08-29T02:38:50.008Z,70681.34
2022-08-29T02:41:17.672Z,70657.41
2022-08-29T02:43:45.120Z,70645.25
2022-08-29T02:46:20.035Z,70645.03
2022-08-29T02:48:49.302Z,70695.91
2022-08-29T02:51:29.849Z,70653.41
2022-08-29T02:53:58.337Z,70660.81
2022-08-29T02:56:26.503Z,70644.84
2022-08-29T02:58:53.992Z,70614.16
2022-08-29T03:01:23.989Z,70644.03
2022-08-29T03:03:52.656Z,70577.56
2022-08-29T03:06:21.226Z,70672.44
2022-08-29T03:08:49.233Z,70638.13
2022-08-29T03:11:17.538Z,70631.63
2022-08-29T03:13:46.109Z,70642.91
2022-08-29T03:16:13.888Z,70586.53
2022-08-29T03:18:41.583Z,70615.19
2022-08-29T03:21:17.250Z,70648.59
2022-08-29T03:23:44.754Z,70632.41
2022-08-29T03:26:12.244Z,70600.78
2022-08-29T03:28:39.822Z,70580.44
2022-08-29T03:31:07.707Z,70617.63
2022-08-29T03:33:35.347Z,70631.22
2022-08-29T03:36:03.426Z,70630.06
2022-08-29T03:38:35.711Z,70602.94
2022-08-29T03:41:02.908Z,70620.09
2022-08-29T03:43:30.125Z,70634.88
2022-08-29T03:45:57.883Z,70473.34
2022-08-29T03:48:24.861Z,70642.53
2022-08-29T03:50:55.844Z,70642.34
2022-08-29T03:53:24.655Z,70722.19
2022-08-29T03:55:52.156Z,70654.88
2022-08-29T03:58:19.454Z,70685.28
2022-08-29T04:00:47.511Z,70645.47
2022-08-29T04:03:14.579Z,70663.78
2022-08-29T04:05:41.783Z,70648.34
2022-08-29T04:08:09.421Z,70661.34
2022-08-29T04:10:39.141Z,70674.50
2022-08-29T04:13:08.454Z,70696.34
2022-08-29T04:15:38.679Z,70695.84
2022-08-29T04:18:08.835Z,70664.75
2022-08-29T04:20:39.627Z,70703.69
2022-08-29T04:23:07.145Z,70699.22
2022-08-29T04:25:37.789Z,70757.13
2022-08-29T04:28:09.202Z,70685.06
2022-08-29T04:30:39.128Z,70681.22
2022-08-29T04:33:07.048Z,70744.19
2022-08-29T04:35:35.509Z,70703.34
2022-08-29T04:38:03.953Z,70690.00
2022-08-29T04:40:31.523Z,70724.56
2022-08-29T04:42:59.487Z,70682.56
2022-08-29T04:45:27.457Z,70730.78
2022-08-29T04:47:55.124Z,70684.47
2022-08-29T04:50:24.366Z,70682.22
2022-08-29T04:52:56.049Z,70605.47
2022-08-29T04:55:25.695Z,70574.06
2022-08-29T04:57:56.359Z,70664.88
2022-08-29T05:00:28.395Z,70657.59
2022-08-29T05:02:55.894Z,70644.06
2022-08-29T05:05:23.535Z,70708.81
2022-08-29T05:07:51.009Z,70695.09
2022-08-29T05:10:20.799Z,70701.91
2022-08-29T05:12:48.784Z,70691.00
2022-08-29T05:15:17.076Z,70655.66
2022-08-29T05:17:45.469Z,70648.66
2022-08-29T05:20:14.048Z,70619.75
2022-08-29T05:22:42.304Z,70660.47
2022-08-29T05:25:17.309Z,70662.72
2022-08-29T05:27:45.783Z,70728.75
2022-08-29T05:30:14.123Z,70692.00
2022-08-29T05:32:41.100Z,70702.22
2022-08-29T05:35:08.838Z,70703.94
2022-08-29T05:37:36.992Z,70657.41
2022-08-29T05:40:05.446Z,70685.88
2022-08-29T05:42:32.670Z,70603.50
2022-08-29T05:44:59.789Z,70577.75
2022-08-29T05:47:27.172Z,70642.03
2022-08-29T05:49:54.192Z,70641.69
2022-08-29T05:52:21.570Z,70690.03
2022-08-29T05:54:49.248Z,70630.13
2022-08-29T05:57:20.738Z,70717.44
2022-08-29T05:59:51.151Z,70731.81
2022-08-29T06:02:21.191Z,70652.59
2022-08-29T06:04:48.639Z,70689.94
2022-08-29T06:07:16.008Z,70669.47
2022-08-29T06:09:44.745Z,70690.59
2022-08-29T06:12:16.337Z,70722.81
2022-08-29T06:14:50.375Z,70704.09
2022-08-29T06:17:18.592Z,70721.56
2022-08-29T06:19:46.068Z,70759.22
2022-08-29T06:22:13.166Z,70820.03
2022-08-29T06:24:44.438Z,70773.00
2022-08-29T06:27:13.030Z,70724.13
2022-08-29T06:29:43.395Z,70825.53
2022-08-29T06:32:13.036Z,70779.63
2022-08-29T06:34:40.713Z,70835.25
2022-08-29T06:37:09.712Z,70872.47
2022-08-29T06:39:36.779Z,70831.63
2022-08-29T06:42:04.089Z,70814.06
2022-08-29T06:44:34.876Z,70820.13
2022-08-29T06:47:02.029Z,70903.09
2022-08-29T06:49:29.788Z,70837.88
2022-08-29T06:51:58.381Z,70867.19
2022-08-29T06:54:28.772Z,70903.50
2022-08-29T06:56:57.748Z,70930.69
2022-08-29T06:59:25.937Z,70918.44
2022-08-29T07:01:55.211Z,70918.22
2022-08-29T07:04:22.775Z,70946.59
2022-08-29T07:06:53.407Z,70922.31
2022-08-29T07:09:20.396Z,70930.44
2022-08-29T07:11:47.464Z,70910.91
2022-08-29T07:14:14.672Z,70956.13
2022-08-29T07:16:42.732Z,70964.09
2022-08-29T07:19:10.866Z,70950.53
2022-08-29T07:21:38.946Z,70971.25
2022-08-29T07:24:07.712Z,70978.47
2022-08-29T07:26:43.070Z,70998.38
2022-08-29T07:29:16.134Z,71001.66
2022-08-29T07:31:43.609Z,71032.47
2022-08-29T07:34:11.407Z,71000.09
2022-08-29T07:36:39.542Z,71001.69
2022-08-29T07:39:12.148Z,71007.25
2022-08-29T07:41:41.301Z,71008.94
2022-08-29T07:44:09.491Z,71031.84
2022-08-29T07:46:38.209Z,71055.44
2022-08-29T07:49:05.723Z,71036.03
2022-08-29T07:51:32.933Z,71006.00
2022-08-29T07:54:00.133Z,71068.75
2022-08-29T07:56:37.772Z,71105.47
2022-08-29T07:59:06.840Z,71059.63
2022-08-29T08:01:35.593Z,71112.44
2022-08-29T08:04:04.074Z,71056.97
2022-08-29T08:06:34.638Z,71101.09
2022-08-29T08:09:05.548Z,71078.41
2022-08-29T08:11:32.733Z,71130.03
2022-08-29T08:14:00.267Z,71107.78
2022-08-29T08:16:28.926Z,71161.41
2022-08-29T08:18:56.862Z,71184.09
2022-08-29T08:21:26.255Z,71226.47
2022-08-29T08:23:54.386Z,71231.03
2022-08-29T08:26:22.403Z,71332.72
2022-08-29T08:28:50.300Z,71288.16
2022-08-29T08:31:18.341Z,71325.69
2022-08-29T08:33:47.649Z,71352.91
2022-08-29T08:36:30.460Z,71471.84
2022-08-29T08:39:00.035Z,71445.47
2022-08-29T08:41:52.461Z,71538.00
2022-08-29T08:44:22.136Z,71576.25
2022-08-29T08:46:54.756Z,71670.88
2022-08-29T08:49:40.617Z,71655.25
2022-08-29T08:52:34.101Z,71773.78
2022-08-29T08:55:24.756Z,71760.84
2022-08-29T08:58:34.391Z,71814.75
2022-08-29T09:01:39.873Z,71847.19
2022-08-29T09:04:12.892Z,71983.38
2022-08-29T09:06:58.376Z,72015.50
2022-08-29T09:10:21.202Z,72126.50
2022-08-29T09:13:12.816Z,72208.78
2022-08-29T09:15:49.623Z,72224.41
2022-08-29T09:18:36.085Z,72280.69
2022-08-29T09:21:39.432Z,72285.53
2022-08-29T09:24:06.129Z,72383.75
2022-08-29T09:26:34.932Z,72524.13
2022-08-29T09:29:01.987Z,72487.25
2022-08-29T09:31:35.447Z,72585.69
2022-08-29T09:34:12.741Z,72542.34
2022-08-29T09:36:52.552Z,72373.47
2022-08-29T09:39:30.237Z,72330.38
2022-08-29T09:42:12.491Z,72550.44
2022-08-29T09:44:43.276Z,72596.25
2022-08-29T09:47:21.273Z,72672.19
2022-08-29T09:50:11.691Z,72775.16
2022-08-29T09:52:57.965Z,72807.53
2022-08-29T09:55:31.133Z,72818.94
2022-08-29T09:58:25.792Z,72786.19
2022-08-29T10:01:19.423Z,72795.81
2022-08-29T10:03:58.562Z,72957.19
2022-08-29T10:06:45.042Z,72911.53
2022-08-29T10:09:28.953Z,73013.66
2022-08-29T10:12:08.635Z,72866.94
2022-08-29T10:14:54.475Z,72856.41
2022-08-29T10:18:00.920Z,72825.91
2022-08-29T10:20:46.951Z,72961.25
2022-08-29T10:23:42.824Z,72827.81
2022-08-29T10:26:36.885Z,72969.91
2022-08-29T10:29:31.896Z,72977.00
2022-08-29T10:32:42.325Z,72814.00
2022-08-29T10:35:32.920Z,72949.56
2022-08-29T10:38:32.927Z,73320.13
2022-08-29T10:41:03.126Z,73441.56
2022-08-29T10:44:05.400Z,73515.88
2022-08-29T10:47:12.196Z,73104.56
2022-08-29T10:50:40.748Z,73355.28
2022-08-29T10:53:19.914Z,73155.03
2022-08-29T10:56:04.400Z,73185.38
2022-08-29T10:59:18.523Z,73368.53
2022-08-29T11:02:05.776Z,73155.03
2022-08-29T11:04:50.725Z,73002.69
2022-08-29T11:07:34.500Z,72986.50
2022-08-29T11:10:10.816Z,73071.69
2022-08-29T11:12:59.043Z,73132.16
2022-08-29T11:15:44.026Z,73238.03
2022-08-29T11:18:45.107Z,73389.16
2022-08-29T11:21:37.374Z,73243.19
2022-08-29T11:24:06.271Z,73357.00
2022-08-29T11:26:58.266Z,73410.34
2022-08-29T11:29:41.261Z,73358.69
2022-08-29T11:32:36.031Z,73247.19
2022-08-29T11:35:21.955Z,73254.50
2022-08-29T11:38:46.774Z,73226.50
2022-08-29T11:41:37.141Z,73071.16
2022-08-29T11:44:25.150Z,73209.22
2022-08-29T11:46:56.214Z,72858.47
2022-08-29T11:49:38.577Z,72983.56
2022-08-29T11:52:08.539Z,73018.75
2022-08-29T11:54:35.592Z,72912.16
2022-08-29T11:57:02.751Z,73009.50
2022-08-29T12:00:04.283Z,72997.31
2022-08-29T12:02:42.686Z,72895.41
2022-08-29T12:05:17.801Z,73008.13
2022-08-29T12:08:36.524Z,72795.53
2022-08-29T12:11:05.807Z,72747.16
2022-08-29T12:13:48.207Z,72556.56
2022-08-29T12:16:43.601Z,72469.03
2022-08-29T12:19:10.920Z,72418.84
2022-08-29T12:21:37.775Z,72452.47
2022-08-29T12:24:28.915Z,72333.81
2022-08-29T12:26:56.552Z,72129.50
2022-08-29T12:29:33.310Z,72152.81
2022-08-29T12:32:50.573Z,72116.75
2022-08-29T12:35:18.177Z,72126.78
2022-08-29T12:37:52.703Z,72105.16
2022-08-29T12:40:28.453Z,72099.47
2022-08-29T12:43:25.899Z,72023.66
2022-08-29T12:45:57.168Z,72048.66
2022-08-29T12:48:40.192Z,72097.16
2022-08-29T12:51:09.660Z,72054.06
2022-08-29T12:53:37.765Z,72049.19
2022-08-29T12:56:22.416Z,71955.19
2022-08-29T12:58:52.987Z,71947.75
2022-08-29T13:01:30.902Z,71958.50
2022-08-29T13:04:17.819Z,71973.00
2022-08-29T13:06:59.011Z,71955.69
2022-08-29T13:09:49.296Z,71961.72
2022-08-29T13:12:30.083Z,72003.53
2022-08-29T13:15:07.655Z,72025.16
2022-08-29T13:17:36.597Z,72062.50
2022-08-29T13:20:38.037Z,72053.47
2022-08-29T13:23:05.468Z,72074.91
2022-08-29T13:25:34.445Z,72076.03
2022-08-29T13:28:02.195Z,72124.06
2022-08-29T13:30:29.689Z,72002.97
2022-08-29T13:33:00.355Z,71952.34
2022-08-29T13:35:35.886Z,72004.63
2022-08-29T13:38:24.037Z,71987.31
2022-08-29T13:40:55.092Z,72005.25
2022-08-29T13:43:41.434Z,71981.31
2022-08-29T13:46:25.835Z,72020.88
2022-08-29T13:49:01.345Z,71986.75
2022-08-29T13:51:28.989Z,71968.72
2022-08-29T13:53:56.954Z,71928.75
2022-08-29T13:56:33.197Z,71950.88
2022-08-29T13:59:05.934Z,71964.66
2022-08-29T14:04:37.318Z,71892.63
2022-08-29T14:07:08.673Z,71990.03
2022-08-29T14:09:41.048Z,72000.16
2022-08-29T14:12:08.806Z,72003.66
2022-08-29T14:14:37.055Z,72019.31
2022-08-29T14:17:07.397Z,72017.56
2022-08-29T14:19:35.341Z,71974.88
2022-08-29T14:22:11.543Z,71992.97
2022-08-29T14:24:45.247Z,72003.75
2022-08-29T14:27:15.362Z,72006.19
2022-08-29T14:29:42.473Z,72163.47
2022-08-29T14:32:12.287Z,72121.31
2022-08-29T14:34:40.238Z,72159.50
2022-08-29T14:37:18.571Z,72133.91
2022-08-29T14:39:45.543Z,72116.06
2022-08-29T14:42:20.379Z,72140.81
2022-08-29T14:44:55.124Z,72053.66
2022-08-29T14:47:24.109Z,72102.59
2022-08-29T14:49:51.204Z,72100.41
2022-08-29T14:52:20.467Z,72118.06
2022-08-29T14:54:47.472Z,72150.88
2022-08-29T14:57:14.695Z,72065.19
2022-08-29T14:59:42.483Z,72055.75
2022-08-29T15:02:10.284Z,72119.41
2022-08-29T15:04:38.182Z,72098.97
2022-08-29T15:07:12.264Z,72079.88
2022-08-29T15:09:43.594Z,71980.69
2022-08-29T15:12:17.748Z,72026.13
2022-08-29T15:14:46.571Z,72040.78
2022-08-29T15:17:14.677Z,72037.88
2022-08-29T15:22:28.985Z,71932.31
2022-08-29T15:24:56.104Z,71979.03
2022-08-29T15:27:27.387Z,71995.78
2022-08-29T15:29:58.395Z,72121.00
2022-08-29T15:32:25.951Z,71948.72
2022-08-29T15:34:53.310Z,71960.69
2022-08-29T15:37:20.407Z,71977.75
2022-08-29T15:39:49.846Z,71972.25
2022-08-29T15:42:28.880Z,71923.38
2022-08-29T15:45:07.695Z,71869.13
2022-08-29T15:47:39.888Z,71875.22
2022-08-29T15:50:09.706Z,71866.00
2022-08-29T15:52:43.228Z,71873.63
2022-08-29T15:55:12.661Z,71886.81
2022-08-29T15:57:52.197Z,71915.06
2022-08-29T16:00:29.765Z,71921.88
2022-08-29T16:03:03.534Z,71976.13
2022-08-29T16:05:33.732Z,71965.81
2022-08-29T16:08:04.275Z,71921.09
2022-08-29T16:10:35.077Z,71917.38
2022-08-29T16:13:02.762Z,71956.47
2022-08-29T16:15:34.003Z,71916.81
2022-08-29T16:18:05.508Z,71903.09
2022-08-29T16:20:35.834Z,71969.09
2022-08-29T16:23:04.626Z,71945.38
2022-08-29T16:25:33.448Z,71893.50
2022-08-29T16:28:01.212Z,71911.19
2022-08-29T16:30:33.262Z,71856.97
2022-08-29T16:33:01.251Z,71831.75
2022-08-29T16:35:28.876Z,71903.91
2022-08-29T16:38:02.468Z,71821.38
2022-08-29T16:40:34.519Z,71859.06
2022-08-29T16:43:04.804Z,71837.13
2022-08-29T16:45:33.117Z,71843.72
2022-08-29T16:48:00.359Z,71775.50
2022-08-29T16:50:28.739Z,71771.19
2022-08-29T16:52:56.327Z,71774.09
2022-08-29T16:55:24.271Z,71759.81
2022-08-29T16:58:10.299Z,71727.66
2022-08-29T17:00:39.464Z,71698.69
2022-08-29T17:03:06.739Z,71723.16
2022-08-29T17:05:33.883Z,71745.22
2022-08-29T17:08:00.880Z,71632.84
2022-08-29T17:10:28.031Z,71630.16
2022-08-29T17:12:55.285Z,71555.75
2022-08-29T17:15:22.708Z,71648.88
2022-08-29T17:17:49.729Z,71583.06
2022-08-29T17:20:17.157Z,71643.50
2022-08-29T17:22:44.190Z,71596.56
2022-08-29T17:25:11.871Z,71497.72
2022-08-29T17:27:39.142Z,71625.22
2022-08-29T17:30:08.342Z,71596.72
2022-08-29T17:32:35.593Z,71506.84
2022-08-29T17:35:02.682Z,71565.72
2022-08-29T17:37:36.072Z,71551.72
2022-08-29T17:40:06.530Z,71523.72
2022-08-29T17:42:33.714Z,71513.03
2022-08-29T17:45:00.800Z,71520.22
2022-08-29T17:47:28.723Z,71496.75
2022-08-29T17:49:56.033Z,71466.63
2022-08-29T17:52:23.282Z,71514.59
2022-08-29T17:54:53.926Z,71496.31
2022-08-29T17:57:21.311Z,71626.50
2022-08-29T17:59:53.893Z,71431.03
2022-08-29T18:02:21.770Z,71419.84
2022-08-29T18:04:48.845Z,71377.66
2022-08-29T18:07:16.230Z,71434.56
2022-08-29T18:09:43.669Z,71420.41
2022-08-29T18:12:10.680Z,71411.56
2022-08-29T18:14:38.105Z,71421.00
2022-08-29T18:17:05.836Z,71351.59
2022-08-29T18:19:33.196Z,71443.06
2022-08-29T18:22:00.266Z,71446.38
2022-08-29T18:24:27.390Z,71403.81
2022-08-29T18:26:54.509Z,71384.44
2022-08-29T18:29:21.869Z,71368.22
2022-08-29T18:31:49.984Z,71391.41
2022-08-29T18:34:17.693Z,71385.53
2022-08-29T18:36:46.892Z,71380.88
2022-08-29T18:39:15.811Z,71396.16
2022-08-29T18:41:45.268Z,71275.75
2022-08-29T18:44:13.887Z,71273.59
2022-08-29T18:46:41.236Z,71261.88
2022-08-29T18:49:09.080Z,71303.63
2022-08-29T18:51:39.686Z,71270.94
2022-08-29T18:54:09.541Z,71297.50
2022-08-29T18:56:38.113Z,71268.38
2022-08-29T18:59:05.325Z,71268.69
2022-08-29T19:01:33.877Z,71268.41
2022-08-29T19:04:02.633Z,71197.44
2022-08-29T19:06:29.854Z,71239.44
2022-08-29T19:08:58.319Z,71163.75
2022-08-29T19:11:28.166Z,71182.53
2022-08-29T19:13:55.499Z,71216.84
2022-08-29T19:16:26.035Z,71262.94
2022-08-29T19:18:53.370Z,71124.34
2022-08-29T19:21:22.660Z,71149.78
2022-08-29T19:23:53.467Z,71194.31
2022-08-29T19:26:31.627Z,71154.22
2022-08-29T19:29:09.895Z,71134.84
2022-08-29T19:31:37.521Z,71074.81
2022-08-29T19:34:04.714Z,71048.44
2022-08-29T19:36:34.757Z,71110.44
2022-08-29T19:39:01.917Z,71133.69
2022-08-29T19:41:29.285Z,71046.31
2022-08-29T19:43:56.348Z,71039.19
2022-08-29T19:46:28.078Z,71048.34
2022-08-29T19:48:56.430Z,71050.56
2022-08-29T19:51:25.583Z,71085.19
2022-08-29T19:53:57.183Z,71108.59
2022-08-29T19:56:26.461Z,71055.06
2022-08-29T19:58:54.105Z,70902.78
2022-08-29T20:01:21.428Z,71051.06
2022-08-29T20:03:49.996Z,71065.25
2022-08-29T20:06:20.480Z,71088.34
2022-08-29T20:08:48.045Z,71113.84
2022-08-29T20:11:20.283Z,71068.13
2022-08-29T20:13:51.051Z,71048.63
2022-08-29T20:16:22.829Z,71033.81
2022-08-29T20:18:52.308Z,71012.72
2022-08-29T20:21:23.303Z,71005.09
2022-08-29T20:23:57.274Z,71022.22
2022-08-29T20:26:27.930Z,71035.94
2022-08-29T20:28:56.230Z,70984.75
2022-08-29T20:31:23.360Z,71003.00
2022-08-29T20:33:51.075Z,70979.53
2022-08-29T20:36:41.051Z,71004.00
2022-08-29T20:39:12.260Z,71001.59
2022-08-29T20:41:39.947Z,71000.47
2022-08-29T20:44:09.887Z,71020.19
2022-08-29T20:46:42.632Z,70997.13
2022-08-29T20:49:12.625Z,71047.31
2022-08-29T20:51:43.989Z,70977.31
2022-08-29T20:54:18.384Z,71000.84
2022-08-29T20:56:45.908Z,70964.19
2022-08-29T20:59:13.171Z,70942.53
2022-08-29T21:01:41.686Z,70948.91
2022-08-29T21:04:29.912Z,70890.81
2022-08-29T21:07:04.258Z,70894.47
2022-08-29T21:09:35.819Z,70947.34
2022-08-29T21:12:03.836Z,70933.75
2022-08-29T21:14:31.086Z,70884.47
2022-08-29T21:16:58.790Z,70891.03
2022-08-29T21:19:31.765Z,70891.41
2022-08-29T21:22:01.576Z,70864.47
2022-08-29T21:24:30.435Z,70908.63
2022-08-29T21:27:01.225Z,70883.47
2022-08-29T21:29:28.951Z,70840.25
2022-08-29T21:31:56.602Z,70840.22
2022-08-29T21:34:24.468Z,70888.25
2022-08-29T21:36:52.210Z,70860.63
2022-08-29T21:39:28.767Z,70854.66
2022-08-29T21:41:57.930Z,70833.44
2022-08-29T21:44:28.819Z,70839.06
2022-08-29T21:46:56.088Z,70815.19
2022-08-29T21:49:23.888Z,70855.44
2022-08-29T21:51:50.967Z,70779.13
2022-08-29T21:54:21.128Z,70796.44
2022-08-29T21:56:50.450Z,70788.16
2022-08-29T21:59:19.284Z,70785.00
2022-08-29T22:01:49.000Z,70829.63
2022-08-29T22:04:28.289Z,70655.25
2022-08-29T22:06:59.216Z,70803.84
2022-08-29T22:09:28.567Z,70831.13
2022-08-29T22:11:59.588Z,70743.53
2022-08-29T22:14:46.741Z,70802.22
2022-08-29T22:17:17.184Z,70823.59
2022-08-29T22:19:47.527Z,70742.78
2022-08-29T22:22:17.243Z,70744.91
2022-08-29T22:24:44.310Z,70764.66
2022-08-29T22:27:11.415Z,70800.56
2022-08-29T22:29:38.612Z,70795.25
2022-08-29T22:32:06.030Z,70770.38
2022-08-29T22:34:33.423Z,70705.94
2022-08-29T22:37:00.853Z,70731.44
2022-08-29T22:39:28.740Z,70759.88
2022-08-29T22:41:56.509Z,70762.88
2022-08-29T22:47:16.076Z,70731.53
2022-08-29T22:49:43.401Z,70756.16
2022-08-29T22:52:13.990Z,70743.72
2022-08-29T22:54:41.905Z,70727.47
2022-08-29T22:57:12.263Z,70741.38
2022-08-29T22:59:41.485Z,70727.50
2022-08-29T23:02:09.784Z,70670.06
2022-08-29T23:04:38.259Z,70710.41
2022-08-29T23:07:07.924Z,70715.47
2022-08-29T23:09:36.075Z,70747.13
2022-08-29T23:12:08.737Z,70736.50
2022-08-29T23:14:41.637Z,70696.91
2022-08-29T23:17:10.355Z,70670.84
2022-08-29T23:19:40.932Z,70720.03
2022-08-29T23:22:11.396Z,70677.78
2022-08-29T23:24:57.585Z,70682.56
2022-08-29T23:27:28.192Z,70652.72
2022-08-29T23:29:57.180Z,70668.69
2022-08-29T23:32:24.440Z,70651.03
2022-08-29T23:34:52.267Z,70667.03
2022-08-29T23:37:19.600Z,70679.75
2022-08-29T23:39:46.993Z,70628.03
2022-08-29T23:42:14.246Z,70656.50
2022-08-29T23:44:41.269Z,70645.84
2022-08-29T23:47:08.927Z,70675.13
2022-08-29T23:49:36.162Z,70620.97
2022-08-29T23:52:05.042Z,70652.28
2022-08-29T23:54:32.068Z,70634.56
2022-08-29T23:56:59.185Z,70638.75
2022-08-29T23:59:45.381Z,70632.00
